createdAt,value
2018-08-17T00:01:27.105Z,17.30
2018-08-17T00:04:00.451Z,17.40
2018-08-17T00:06:37.504Z,18.67
2018-08-17T00:09:12.763Z,15.67
2018-08-17T00:11:46.504Z,16.62
2018-08-17T00:14:19.254Z,16.93
2018-08-17T00:16:53.415Z,17.17
2018-08-17T00:19:27.537Z,16.13
2018-08-17T00:22:03.937Z,16.50
2018-08-17T00:24:39.546Z,16.70
2018-08-17T00:27:13.102Z,16.67
2018-08-17T00:29:46.162Z,20.40
2018-08-17T00:32:19.680Z,18.23
2018-08-17T00:34:54.284Z,17.93
2018-08-17T00:37:27.020Z,17.27
2018-08-17T00:40:01.151Z,19.50
2018-08-17T00:42:36.360Z,20.27
2018-08-17T00:45:09.735Z,19.63
2018-08-17T00:47:44.184Z,20.50
2018-08-17T00:50:18.380Z,19.93
2018-08-17T00:53:00.830Z,18.40
2018-08-17T00:55:34.625Z,20.77
2018-08-17T00:58:08.951Z,19.23
2018-08-17T01:00:44.176Z,21.27
2018-08-17T01:03:16.833Z,19.97
2018-08-17T01:05:50.267Z,20.07
2018-08-17T01:08:22.867Z,21.60
2018-08-17T01:10:58.047Z,18.97
2018-08-17T01:13:30.844Z,21.97
2018-08-17T01:16:03.829Z,18.97
2018-08-17T01:18:37.006Z,17.53
2018-08-17T01:21:10.351Z,19.43
2018-08-17T01:23:44.043Z,18.10
2018-08-17T01:26:17.407Z,17.80
2018-08-17T01:28:51.289Z,16.97
2018-08-17T01:31:25.907Z,16.60
2018-08-17T01:33:58.672Z,18.33
2018-08-17T01:36:32.172Z,19.47
2018-08-17T01:39:08.089Z,14.77
2018-08-17T01:41:40.776Z,15.30
2018-08-17T01:44:13.377Z,15.45
2018-08-17T01:46:46.187Z,16.00
2018-08-17T01:49:18.868Z,15.90
2018-08-17T01:51:51.156Z,15.67
2018-08-17T01:54:24.117Z,16.17
2018-08-17T01:56:58.212Z,14.83
2018-08-17T01:59:31.996Z,15.23
2018-08-17T02:02:05.358Z,14.37
2018-08-17T02:04:37.880Z,16.80
2018-08-17T02:07:10.828Z,19.37
2018-08-17T02:09:45.344Z,17.47
2018-08-17T02:12:18.428Z,17.87
2018-08-17T02:14:51.088Z,17.87
2018-08-17T02:17:23.880Z,18.80
2018-08-17T02:19:56.493Z,20.07
2018-08-17T02:22:29.360Z,20.10
2018-08-17T02:25:02.289Z,20.87
2018-08-17T02:27:34.884Z,19.83
2018-08-17T02:30:07.912Z,19.97
2018-08-17T02:32:42.794Z,20.47
2018-08-17T02:35:15.439Z,20.03
2018-08-17T02:37:47.999Z,21.03
2018-08-17T02:40:22.205Z,24.50
2018-08-17T02:42:55.041Z,23.10
2018-08-17T02:45:28.479Z,22.77
2018-08-17T02:48:02.341Z,27.53
2018-08-17T02:50:34.936Z,27.00
2018-08-17T02:53:08.414Z,27.20
2018-08-17T02:55:41.355Z,25.33
2018-08-17T02:58:13.957Z,26.63
2018-08-17T03:00:46.600Z,27.13
2018-08-17T03:03:19.559Z,28.87
2018-08-17T03:05:52.501Z,27.87
2018-08-17T03:08:24.992Z,25.00
2018-08-17T03:10:57.881Z,24.93
2018-08-17T03:13:31.364Z,26.40
2018-08-17T03:16:03.995Z,25.13
2018-08-17T03:18:36.745Z,25.20
2018-08-17T03:21:09.390Z,23.60
2018-08-17T03:23:42.239Z,24.00
2018-08-17T03:26:15.206Z,21.10
2018-08-17T03:28:47.663Z,22.83
2018-08-17T03:31:20.405Z,20.90
2018-08-17T03:33:54.033Z,21.10
2018-08-17T03:36:27.220Z,25.00
2018-08-17T03:38:59.780Z,20.43
2018-08-17T03:41:37.962Z,18.03
2018-08-17T03:44:16.254Z,20.47
2018-08-17T03:46:51.742Z,20.58
2018-08-17T03:49:25.677Z,18.27
2018-08-17T03:51:58.288Z,19.87
2018-08-17T03:54:30.824Z,22.13
2018-08-17T03:57:05.628Z,19.13
2018-08-17T03:59:38.190Z,18.80
2018-08-17T04:02:10.757Z,18.33
2018-08-17T04:04:44.055Z,18.23
2018-08-17T04:07:16.839Z,17.53
2018-08-17T04:09:49.415Z,17.70
2018-08-17T04:12:23.157Z,16.50
2018-08-17T04:14:55.791Z,16.70
2018-08-17T04:17:29.124Z,15.93
2018-08-17T04:20:05.062Z,17.53
2018-08-17T04:22:37.612Z,18.23
2018-08-17T04:25:10.283Z,16.10
2018-08-17T04:27:44.810Z,18.53
2018-08-17T04:30:16.495Z,17.30
2018-08-17T04:32:49.647Z,13.77
2018-08-17T04:35:25.685Z,14.55
2018-08-17T04:37:59.661Z,12.87
2018-08-17T04:40:33.220Z,13.97
2018-08-17T04:43:05.777Z,16.10
2018-08-17T04:45:39.631Z,14.60
2018-08-17T04:48:12.170Z,14.60
2018-08-17T04:50:45.261Z,14.10
2018-08-17T04:53:18.160Z,12.67
2018-08-17T04:55:50.761Z,16.57
2018-08-17T04:58:23.327Z,11.20
2018-08-17T05:00:56.940Z,11.15
2018-08-17T05:03:30.081Z,11.00
2018-08-17T05:06:02.474Z,11.07
2018-08-17T05:08:35.269Z,11.80
2018-08-17T05:11:08.560Z,10.30
2018-08-17T05:13:40.968Z,7.53
2018-08-17T05:16:14.792Z,8.10
2018-08-17T05:18:47.448Z,7.03
2018-08-17T05:21:22.327Z,9.60
2018-08-17T05:23:55.249Z,7.50
2018-08-17T05:26:27.736Z,7.70
2018-08-17T05:29:01.234Z,6.10
2018-08-17T05:31:34.759Z,9.33
2018-08-17T05:34:07.428Z,5.63
2018-08-17T05:36:40.010Z,6.80
2018-08-17T05:39:13.773Z,7.20
2018-08-17T05:41:47.125Z,7.37
2018-08-17T05:44:19.726Z,7.30
2018-08-17T05:46:52.519Z,6.87
2018-08-17T05:49:25.192Z,6.87
2018-08-17T05:51:58.530Z,7.10
2018-08-17T05:54:30.879Z,5.80
2018-08-17T05:57:03.400Z,8.75
2018-08-17T05:59:35.796Z,8.13
2018-08-17T06:02:11.495Z,9.07
2018-08-17T06:04:43.992Z,9.00
2018-08-17T06:07:16.564Z,7.13
2018-08-17T06:09:51.428Z,10.45
2018-08-17T06:12:23.925Z,9.00
2018-08-17T06:15:02.569Z,12.43
2018-08-17T06:17:36.991Z,12.43
2018-08-17T06:20:10.212Z,13.63
2018-08-17T06:22:43.293Z,12.30
2018-08-17T06:25:18.225Z,12.60
2018-08-17T06:27:52.813Z,15.57
2018-08-17T06:30:25.857Z,20.87
2018-08-17T06:32:59.090Z,17.07
2018-08-17T06:35:32.896Z,16.62
2018-08-17T06:38:06.554Z,17.07
2018-08-17T06:40:41.658Z,16.70
2018-08-17T06:43:14.336Z,17.33
2018-08-17T06:45:47.321Z,15.53
2018-08-17T06:48:20.604Z,24.13
2018-08-17T06:50:56.166Z,21.00
2018-08-17T06:53:29.123Z,26.83
2018-08-17T06:56:01.847Z,24.77
2018-08-17T06:58:34.978Z,22.90
2018-08-17T07:01:07.596Z,25.83
2018-08-17T07:03:41.125Z,20.47
2018-08-17T07:06:13.745Z,17.87
2018-08-17T07:08:47.774Z,16.73
2018-08-17T07:11:23.852Z,14.97
2018-08-17T07:13:56.990Z,17.63
2018-08-17T07:16:32.742Z,23.40
2018-08-17T07:19:06.227Z,18.67
2018-08-17T07:21:42.639Z,17.53
2018-08-17T07:24:16.785Z,21.23
2018-08-17T07:26:50.326Z,16.07
2018-08-17T07:29:24.749Z,18.30
2018-08-17T07:31:58.393Z,16.67
2018-08-17T07:34:34.590Z,16.85
2018-08-17T07:37:07.591Z,17.37
2018-08-17T07:39:43.335Z,15.27
2018-08-17T07:42:16.995Z,15.27
2018-08-17T07:44:49.613Z,16.30
2018-08-17T07:47:24.355Z,13.37
2018-08-17T07:50:00.558Z,16.03
2018-08-17T07:52:36.100Z,13.80
2018-08-17T07:55:09.939Z,10.20
2018-08-17T07:57:44.029Z,13.27
2018-08-17T08:00:18.330Z,14.23
2018-08-17T08:02:52.349Z,13.33
2018-08-17T08:05:27.553Z,11.00
2018-08-17T08:08:08.499Z,10.40
2018-08-17T08:10:47.296Z,10.47
2018-08-17T08:13:20.999Z,11.23
2018-08-17T08:15:54.724Z,9.60
2018-08-17T08:18:29.077Z,7.43
2018-08-17T08:21:02.601Z,9.03
2018-08-17T08:23:38.688Z,7.63
2018-08-17T08:26:13.117Z,8.90
2018-08-17T08:28:45.666Z,7.70
2018-08-17T08:31:18.538Z,10.63
2018-08-17T08:33:51.165Z,9.60
2018-08-17T08:36:25.036Z,14.03
2018-08-17T08:38:58.434Z,10.57
2018-08-17T08:41:32.138Z,14.07
2018-08-17T08:44:06.085Z,9.27
2018-08-17T08:46:40.254Z,8.60
2018-08-17T08:49:16.292Z,10.48
2018-08-17T08:51:50.516Z,10.20
2018-08-17T08:54:23.035Z,10.87
2018-08-17T08:56:59.083Z,8.90
2018-08-17T08:59:33.785Z,10.83
2018-08-17T09:02:09.689Z,8.53
2018-08-17T09:04:42.568Z,8.30
2018-08-17T09:07:16.162Z,9.53
2018-08-17T09:09:53.083Z,9.30
2018-08-17T09:12:26.137Z,10.03
2018-08-17T09:14:59.519Z,7.07
2018-08-17T09:17:39.916Z,9.47
2018-08-17T09:20:16.569Z,8.00
2018-08-17T09:22:50.804Z,6.85
2018-08-17T09:25:24.342Z,6.93
2018-08-17T09:27:59.955Z,8.33
2018-08-17T09:30:35.666Z,6.15
2018-08-17T09:33:10.396Z,6.37
2018-08-17T09:35:44.676Z,5.00
2018-08-17T09:38:18.166Z,7.47
2018-08-17T09:40:54.419Z,7.40
2018-08-17T09:43:27.637Z,11.37
2018-08-17T09:46:00.779Z,12.27
2018-08-17T09:48:35.680Z,20.20
2018-08-17T09:51:11.419Z,22.10
2018-08-17T09:53:50.385Z,19.40
2018-08-17T09:56:22.930Z,21.20
2018-08-17T09:58:56.804Z,16.63
2018-08-17T10:01:39.369Z,18.13
2018-08-17T10:04:17.375Z,17.93
2018-08-17T10:06:56.354Z,17.90
2018-08-17T10:09:35.101Z,19.77
2018-08-17T10:12:09.110Z,14.73
2018-08-17T10:14:43.673Z,14.53
2018-08-17T10:17:17.186Z,13.43
2018-08-17T10:19:51.662Z,12.63
2018-08-17T10:22:26.492Z,11.98
2018-08-17T10:25:14.602Z,12.50
2018-08-17T10:27:55.864Z,13.33
2018-08-17T10:30:29.842Z,16.57
2018-08-17T10:33:06.510Z,22.30
2018-08-17T10:35:41.813Z,19.13
2018-08-17T10:38:21.093Z,20.90
2018-08-17T10:40:56.601Z,22.23
2018-08-17T10:43:29.525Z,22.87
2018-08-17T10:46:05.274Z,25.15
2018-08-17T10:48:37.837Z,19.80
2018-08-17T10:51:11.919Z,18.20
2018-08-17T10:53:48.484Z,18.77
2018-08-17T10:56:22.172Z,16.63
2018-08-17T10:58:55.840Z,19.50
2018-08-17T11:01:31.654Z,19.93
2018-08-17T11:04:08.132Z,22.10
2018-08-17T11:06:40.679Z,20.60
2018-08-17T11:09:15.167Z,23.58
2018-08-17T11:11:49.526Z,20.17
2018-08-17T11:14:28.238Z,18.83
2018-08-17T11:17:02.242Z,18.87
2018-08-17T11:19:37.193Z,20.10
2018-08-17T11:22:10.061Z,17.87
2018-08-17T11:24:42.813Z,22.23
2018-08-17T11:27:17.213Z,21.37
2018-08-17T11:29:51.034Z,20.20
2018-08-17T11:32:24.952Z,23.47
2018-08-17T11:35:00.579Z,18.67
2018-08-17T11:37:37.888Z,14.00
2018-08-17T11:40:12.004Z,15.47
2018-08-17T11:42:48.389Z,16.17
2018-08-17T11:45:25.342Z,14.33
2018-08-17T11:48:02.312Z,16.47
2018-08-17T11:50:38.189Z,17.27
2018-08-17T11:53:14.404Z,18.87
2018-08-17T11:55:48.013Z,20.23
2018-08-17T11:58:23.982Z,15.50
2018-08-17T12:01:26.980Z,15.23
2018-08-17T12:04:00.457Z,14.43
2018-08-17T12:06:34.244Z,13.17
2018-08-17T12:09:10.558Z,13.17
2018-08-17T12:11:46.735Z,12.65
2018-08-17T12:14:23.616Z,11.88
2018-08-17T12:16:57.568Z,11.50
2018-08-17T12:19:30.772Z,12.97
2018-08-17T12:22:06.901Z,12.13
2018-08-17T12:24:40.557Z,13.27
2018-08-17T12:27:16.653Z,11.37
2018-08-17T12:29:53.425Z,14.17
2018-08-17T12:32:26.949Z,15.60
2018-08-17T12:35:02.877Z,13.43
2018-08-17T12:37:36.728Z,13.57
2018-08-17T12:40:10.443Z,11.47
2018-08-17T12:42:43.687Z,10.67
2018-08-17T12:45:18.440Z,12.87
2018-08-17T12:47:51.205Z,17.23
2018-08-17T12:50:24.091Z,19.70
2018-08-17T12:52:59.557Z,20.73
2018-08-17T12:55:33.546Z,21.17
2018-08-17T12:58:12.290Z,24.40
2018-08-17T13:00:46.212Z,21.93
2018-08-17T13:03:21.708Z,22.87
2018-08-17T13:05:57.437Z,19.27
2018-08-17T13:08:31.162Z,17.53
2018-08-17T13:11:03.968Z,16.37
2018-08-17T13:13:37.889Z,14.90
2018-08-17T13:16:12.288Z,15.85
2018-08-17T13:18:45.869Z,14.07
2018-08-17T13:21:20.555Z,18.65
2018-08-17T13:23:53.209Z,14.67
2018-08-17T13:26:26.452Z,12.00
2018-08-17T13:28:59.950Z,9.47
2018-08-17T13:31:34.685Z,7.40
2018-08-17T13:34:09.424Z,7.40
2018-08-17T13:36:42.920Z,5.93
2018-08-17T13:39:16.454Z,7.30
2018-08-17T13:41:49.411Z,6.63
2018-08-17T13:44:25.067Z,8.17
2018-08-17T13:46:59.414Z,7.07
2018-08-17T13:49:33.149Z,6.67
2018-08-17T13:52:07.300Z,9.30
2018-08-17T13:54:40.395Z,9.10
2018-08-17T13:57:14.875Z,9.80
2018-08-17T13:59:53.062Z,8.88
2018-08-17T14:02:26.548Z,9.27
2018-08-17T14:04:59.544Z,10.70
2018-08-17T14:07:32.888Z,9.70
2018-08-17T14:10:07.679Z,8.20
2018-08-17T14:12:40.682Z,7.93
2018-08-17T14:15:16.245Z,9.70
2018-08-17T14:17:49.285Z,9.63
2018-08-17T14:20:25.536Z,6.53
2018-08-17T14:23:07.828Z,6.33
2018-08-17T14:25:41.210Z,6.43
2018-08-17T14:28:18.624Z,7.20
2018-08-17T14:30:53.627Z,6.67
2018-08-17T14:33:28.669Z,6.50
2018-08-17T14:36:07.061Z,7.80
2018-08-17T14:38:42.974Z,10.53
2018-08-17T14:41:16.271Z,8.33
2018-08-17T14:43:49.893Z,7.73
2018-08-17T14:46:22.697Z,9.17
2018-08-17T14:48:56.857Z,6.23
2018-08-17T14:51:30.064Z,7.10
2018-08-17T14:54:04.107Z,7.50
2018-08-17T14:56:36.644Z,6.47
2018-08-17T14:59:09.706Z,6.77
2018-08-17T15:01:42.674Z,5.60
2018-08-17T15:04:16.224Z,7.55
2018-08-17T15:06:51.204Z,7.68
2018-08-17T15:09:25.973Z,8.63
2018-08-17T15:11:59.391Z,8.93
2018-08-17T15:14:33.101Z,8.00
2018-08-17T15:17:09.700Z,8.90
2018-08-17T15:19:44.385Z,6.97
2018-08-17T15:22:18.987Z,7.50
2018-08-17T15:24:53.105Z,8.97
2018-08-17T15:27:26.465Z,6.70
2018-08-17T15:30:00.921Z,7.60
2018-08-17T15:32:40.591Z,8.87
2018-08-17T15:35:18.252Z,7.13
2018-08-17T15:37:51.086Z,8.98
2018-08-17T15:40:24.112Z,6.82
2018-08-17T15:43:16.058Z,7.67
2018-08-17T15:45:50.724Z,6.57
2018-08-17T15:48:23.966Z,8.05
2018-08-17T15:51:02.180Z,5.30
2018-08-17T15:53:42.334Z,6.27
2018-08-17T15:56:15.219Z,9.27
2018-08-17T15:58:48.706Z,7.20
2018-08-17T16:01:21.295Z,6.97
2018-08-17T16:03:55.126Z,7.40
2018-08-17T16:06:27.894Z,8.93
2018-08-17T16:09:01.931Z,7.93
2018-08-17T16:11:37.136Z,9.88
2018-08-17T16:14:09.758Z,6.93
2018-08-17T16:16:43.165Z,8.13
2018-08-17T16:19:16.104Z,9.80
2018-08-17T16:21:50.525Z,8.60
2018-08-17T16:24:23.001Z,6.80
2018-08-17T16:27:02.611Z,9.10
2018-08-17T16:29:40.083Z,8.47
2018-08-17T16:32:22.393Z,7.60
2018-08-17T16:34:59.248Z,7.90
2018-08-17T16:37:32.967Z,8.50
2018-08-17T16:40:11.010Z,5.10
2018-08-17T16:42:48.326Z,5.57
2018-08-17T16:45:20.960Z,6.23
2018-08-17T16:47:57.608Z,4.20
2018-08-17T16:50:34.676Z,6.50
2018-08-17T16:53:14.179Z,5.60
2018-08-17T16:55:48.125Z,5.20
2018-08-17T16:58:26.616Z,6.67
2018-08-17T17:01:00.726Z,4.33
2018-08-17T17:03:33.285Z,6.60
2018-08-17T17:06:23.883Z,4.37
2018-08-17T17:09:07.208Z,6.30
2018-08-17T17:11:42.573Z,3.27
2018-08-17T17:14:16.613Z,6.47
2018-08-17T17:16:51.484Z,6.53
2018-08-17T17:19:25.865Z,4.27
2018-08-17T17:21:59.548Z,7.00
2018-08-17T17:24:35.208Z,4.33
2018-08-17T17:27:09.508Z,6.67
2018-08-17T17:29:46.609Z,6.37
2018-08-17T17:32:20.198Z,6.50
2018-08-17T17:34:55.518Z,5.35
2018-08-17T17:37:28.484Z,4.23
2018-08-17T17:40:01.157Z,4.13
2018-08-17T17:42:37.622Z,6.10
2018-08-17T17:45:13.174Z,4.37
2018-08-17T17:47:46.695Z,6.77
2018-08-17T17:50:23.703Z,4.30
2018-08-17T17:52:59.091Z,7.50
2018-08-17T17:55:43.068Z,5.27
2018-08-17T17:58:17.963Z,5.33
2018-08-17T18:01:05.000Z,7.20
2018-08-17T18:03:44.702Z,3.93
2018-08-17T18:06:20.171Z,6.53
2018-08-17T18:09:09.469Z,5.40
2018-08-17T18:11:44.893Z,4.53
2018-08-17T18:14:21.158Z,5.97
2018-08-17T18:16:57.389Z,4.32
2018-08-17T18:19:35.261Z,5.10
2018-08-17T18:22:30.453Z,6.07
2018-08-17T18:25:15.464Z,3.78
2018-08-17T18:27:51.904Z,4.20
2018-08-17T18:30:26.868Z,5.13
2018-08-17T18:33:00.420Z,7.77
2018-08-17T18:35:33.350Z,4.70
2018-08-17T18:38:08.713Z,3.13
2018-08-17T18:40:43.444Z,3.43
2018-08-17T18:43:16.688Z,3.00
2018-08-17T18:45:50.580Z,4.73
2018-08-17T18:48:24.724Z,4.53
2018-08-17T18:50:57.332Z,4.78
2018-08-17T18:53:30.979Z,6.70
2018-08-17T18:56:05.916Z,3.80
2018-08-17T18:58:40.881Z,4.32
2018-08-17T19:01:13.835Z,5.77
2018-08-17T19:03:48.017Z,4.93
2018-08-17T19:06:22.807Z,7.87
2018-08-17T19:08:56.829Z,5.30
2018-08-17T19:11:31.446Z,5.43
2018-08-17T19:14:07.466Z,5.37
2018-08-17T19:16:42.318Z,6.33
2018-08-17T19:19:17.724Z,2.93
2018-08-17T19:21:55.082Z,7.03
2018-08-17T19:24:30.511Z,4.23
2018-08-17T19:27:06.302Z,6.28
2018-08-17T19:29:43.489Z,5.65
2018-08-17T19:32:18.025Z,3.47
2018-08-17T19:34:52.359Z,4.97
2018-08-17T19:37:28.195Z,4.47
2018-08-17T19:40:03.950Z,6.83
2018-08-17T19:42:38.914Z,7.97
2018-08-17T19:45:16.520Z,6.03
2018-08-17T19:47:55.726Z,6.93
2018-08-17T19:50:39.719Z,4.57
2018-08-17T19:53:18.572Z,3.87
2018-08-17T19:55:53.976Z,5.50
2018-08-17T19:58:31.094Z,7.07
2018-08-17T20:01:07.485Z,8.10
2018-08-17T20:03:42.835Z,4.80
2018-08-17T20:06:17.686Z,6.60
2018-08-17T20:08:53.598Z,5.00
2018-08-17T20:11:26.573Z,4.30
2018-08-17T20:14:02.471Z,7.13
2018-08-17T20:16:37.608Z,10.77
2018-08-17T20:19:16.654Z,5.13
2018-08-17T20:21:52.967Z,6.17
2018-08-17T20:24:26.666Z,5.87
2018-08-17T20:27:06.857Z,5.13
2018-08-17T20:29:40.579Z,10.20
2018-08-17T20:32:14.230Z,6.60
2018-08-17T20:34:51.343Z,7.53
2018-08-17T20:37:26.210Z,4.87
2018-08-17T20:39:59.033Z,11.47
2018-08-17T20:42:35.561Z,7.00
2018-08-17T20:45:14.409Z,6.97
2018-08-17T20:47:47.370Z,9.80
2018-08-17T20:50:22.983Z,8.00
2018-08-17T20:52:57.829Z,6.10
2018-08-17T20:55:31.464Z,7.07
2018-08-17T20:58:09.303Z,6.07
2018-08-17T21:00:43.958Z,5.80
2018-08-17T21:03:19.268Z,4.83
2018-08-17T21:05:52.353Z,9.33
2018-08-17T21:08:26.967Z,9.77
2018-08-17T21:11:06.354Z,10.93
2018-08-17T21:14:00.696Z,7.68
2018-08-17T21:16:42.449Z,10.30
2018-08-17T21:19:39.127Z,8.00
2018-08-17T21:22:13.766Z,8.00
2018-08-17T21:24:48.093Z,8.68
2018-08-17T21:27:28.339Z,10.83
2018-08-17T21:30:09.798Z,13.07
2018-08-17T21:32:48.436Z,10.93
2018-08-17T21:35:21.707Z,10.60
2018-08-17T21:37:56.066Z,8.15
2018-08-17T21:40:31.382Z,12.67
2018-08-17T21:43:04.343Z,10.87
2018-08-17T21:45:38.249Z,14.93
2018-08-17T21:48:26.892Z,6.73
2018-08-17T21:51:02.761Z,10.93
2018-08-17T21:53:45.183Z,11.73
2018-08-17T21:56:20.637Z,11.17
2018-08-17T21:58:56.407Z,8.47
2018-08-17T22:01:28.893Z,9.90
2018-08-17T22:04:07.105Z,11.73
2018-08-17T22:06:44.489Z,9.37
2018-08-17T22:09:41.598Z,12.02
2018-08-17T22:12:17.308Z,8.57
2018-08-17T22:17:42.829Z,8.07
2018-08-17T22:20:15.996Z,7.72
2018-08-17T22:22:51.785Z,7.37
2018-08-17T22:25:25.191Z,7.83
2018-08-17T22:27:57.767Z,11.17
2018-08-17T22:30:31.844Z,6.87
2018-08-17T22:33:08.469Z,10.93
2018-08-17T22:35:42.155Z,12.27
2018-08-17T22:38:16.591Z,10.50
2018-08-17T22:40:51.179Z,9.00
2018-08-17T22:43:23.577Z,12.10
2018-08-17T22:45:59.396Z,11.33
2018-08-17T22:48:33.132Z,8.47
2018-08-17T22:51:05.670Z,9.10
2018-08-17T22:53:38.437Z,10.23
2018-08-17T22:56:17.852Z,12.27
2018-08-17T22:58:53.076Z,9.97
2018-08-17T23:01:28.789Z,8.07
2018-08-17T23:04:02.368Z,11.00
2018-08-17T23:06:36.276Z,9.17
2018-08-17T23:09:14.415Z,7.73
2018-08-17T23:11:49.563Z,9.70
2018-08-17T23:14:25.038Z,12.43
2018-08-17T23:17:01.979Z,12.63
2018-08-17T23:19:37.029Z,12.30
2018-08-17T23:22:11.146Z,11.97
2018-08-17T23:24:52.373Z,14.77
2018-08-17T23:27:25.205Z,11.13
2018-08-17T23:29:58.822Z,12.90
2018-08-17T23:32:34.127Z,12.63
2018-08-17T23:35:08.132Z,12.13
2018-08-17T23:37:40.999Z,12.37
2018-08-17T23:40:14.115Z,14.10
2018-08-17T23:42:46.825Z,12.10
2018-08-17T23:45:19.467Z,11.00
2018-08-17T23:47:53.519Z,10.30
2018-08-17T23:50:27.289Z,10.80
2018-08-17T23:53:01.169Z,12.57
2018-08-17T23:55:34.093Z,16.10
2018-08-17T23:58:07.477Z,15.30
